Terminal Aerodrome Forecast
Issued by NWS

Home | Current Version | Previous Version | Text Only | Print | Product List | Glossary On
Versions: 1 2 3 4 5 6 7 8 9 10 11 12 13 14 15 16 17 18 19 20 21 22 23 24 25 26 27 28
000
FTUS43 KGRB 302300
TAFRHI
TAF
KRHI 302325Z 0100/0124 13005KT P6SM BKN250
     FM010400 13004KT P6SM BKN012
     FM010800 13004KT P6SM SCT006 OVC010
      TEMPO 0109/0113 5SM BR BKN006
     FM011500 15008KT P6SM BKN015 PROB30 0121/0124 5SM -SHRA=

USA.gov is the U.S. government's official web portal to all federal, state and local government web resources and services.